Time;durP1;ratioP1;P1;durP2;ratioP2;P2;SDS_P1;SDS_P2;PMS_P1;PMS_P2;Temp;Humidity;BMP_temperature;BMP_pressure;BME280_temperature;BME280_humidity;BME280_pressure;Samples;Min_cycle;Max_cycle;Signal;HPM_P1;HPM_P2
2023/03/15 00:00:18;;;;;;;4.90;1.83;;;;;;;1.40;100.00;98421.13;5005969;28;20032;-80
2023/03/15 00:02:44;;;;;;;4.10;1.75;;;;;;;1.39;100.00;98406.13;5014323;28;20041;-79
2023/03/15 00:05:11;;;;;;;4.43;1.80;;;;;;;1.41;100.00;98419.28;5004005;28;20117;-80
2023/03/15 00:07:37;;;;;;;3.15;1.75;;;;;;;1.44;100.00;98437.63;5022483;28;20455;-79
2023/03/15 00:10:03;;;;;;;2.45;1.50;;;;;;;1.45;100.00;98439.31;5013773;28;20040;-79
2023/03/15 00:12:29;;;;;;;3.40;1.48;;;;;;;1.45;100.00;98439.31;5018589;28;20537;-79
2023/03/15 00:14:54;;;;;;;4.32;1.98;;;;;;;1.66;100.00;98468.31;5032397;28;20025;-78
2023/03/15 00:17:21;;;;;;;3.15;1.60;;;;;;;1.69;100.00;98474.16;5010012;28;20510;-80
2023/03/15 00:19:47;;;;;;;4.90;1.88;;;;;;;1.61;100.00;98463.44;5036437;28;20041;-81
2023/03/15 00:22:13;;;;;;;5.38;2.00;;;;;;;1.67;100.00;98469.97;5032647;28;20067;-82
2023/03/15 00:24:38;;;;;;;5.40;2.30;;;;;;;1.69;100.00;98473.34;5040428;28;20025;-80
2023/03/15 00:27:04;;;;;;;3.50;1.98;;;;;;;1.67;100.00;98469.97;5025686;28;20396;-79
2023/03/15 00:29:30;;;;;;;8.23;2.13;;;;;;;1.67;100.00;98476.16;5015919;28;20501;-78
2023/03/15 00:31:55;;;;;;;4.88;2.05;;;;;;;1.58;100.00;98465.59;5011724;28;20030;-79
2023/03/15 00:34:24;;;;;;;4.05;2.22;;;;;;;1.65;100.00;98482.63;5009519;28;20073;-79
2023/03/15 00:36:52;;;;;;;4.00;1.73;;;;;;;1.50;100.00;98469.84;5029235;28;20471;-79
2023/03/15 00:39:18;;;;;;;6.60;2.22;;;;;;;1.62;100.00;98498.94;5013373;28;20064;-79
2023/03/15 00:41:44;;;;;;;4.65;2.75;;;;;;;1.26;100.00;98443.00;5013187;28;20395;-78
2023/03/15 00:44:10;;;;;;;7.55;2.60;;;;;;;1.61;100.00;98491.94;5011231;28;20030;-78
2023/03/15 00:46:35;;;;;;;7.22;3.10;;;;;;;1.50;100.00;98469.84;5020249;28;20534;-80
2023/03/15 00:49:00;;;;;;;9.40;3.20;;;;;;;1.58;100.00;98500.25;5026855;28;20470;-79
2023/03/15 00:51:26;;;;;;;4.60;2.83;;;;;;;1.48;100.00;98498.50;5043588;28;20017;-79
2023/03/15 00:53:52;;;;;;;7.03;2.83;;;;;;;1.67;100.00;98518.81;5019086;28;20124;-81
2023/03/15 00:56:26;;;;;;;7.30;3.60;;;;;;;1.62;100.00;98525.59;5029026;28;20029;-80
2023/03/15 00:58:51;;;;;;;5.95;2.85;;;;;;;1.36;100.00;98489.03;5018088;28;20076;-80
2023/03/15 01:01:20;;;;;;;9.20;3.45;;;;;;;1.62;100.00;98538.94;5015484;28;20018;-79
2023/03/15 01:03:45;;;;;;;11.85;3.40;;;;;;;1.59;100.00;98533.91;5012353;28;20025;-79
2023/03/15 01:06:14;;;;;;;7.57;3.28;;;;;;;1.59;100.00;98540.06;5017723;28;20408;-79
2023/03/15 01:08:40;;;;;;;8.38;3.38;;;;;;;1.49;100.00;98536.66;5014147;28;20484;-79
2023/03/15 01:11:09;;;;;;;6.88;3.10;;;;;;;1.39;100.00;98531.41;5019008;28;20101;-78
2023/03/15 01:13:35;;;;;;;8.80;3.28;;;;;;;1.49;100.00;98558.84;5045784;28;20026;-78
2023/03/15 01:16:00;;;;;;;9.82;3.55;;;;;;;1.20;100.00;98502.22;5046394;28;20030;-79
2023/03/15 01:18:26;;;;;;;10.55;3.50;;;;;;;1.42;100.00;98564.91;5046843;28;20517;-81
2023/03/15 01:20:51;;;;;;;8.10;3.85;;;;;;;1.28;100.00;98545.78;5032567;28;20097;-80
2023/03/15 01:23:16;;;;;;;7.32;4.10;;;;;;;1.01;100.00;98508.53;5013994;28;20036;-79
2023/03/15 01:25:42;;;;;;;9.43;4.25;;;;;;;1.19;100.00;98543.19;5040144;28;20048;-78
2023/03/15 01:28:07;;;;;;;6.97;3.70;;;;;;;1.26;100.00;98569.09;5029627;23;20393;-65
2023/03/15 01:30:33;;;;;;;12.05;4.65;;;;;;;1.08;100.00;98566.38;5010068;28;20026;-65
2023/03/15 01:32:59;;;;;;;16.23;5.20;;;;;;;1.09;100.00;98568.03;4996873;28;20033;-65
2023/03/15 01:35:24;;;;;;;13.27;4.00;;;;;;;0.97;100.00;98563.94;5007769;28;20026;-65
2023/03/15 01:37:50;;;;;;;9.27;4.18;;;;;;;0.87;100.00;98573.78;5001475;28;20509;-65
2023/03/15 01:40:23;;;;;;;13.35;4.82;;;;;;;0.72;100.00;98578.75;5010189;28;20068;-66
2023/03/15 01:43:06;;;;;;;12.75;5.10;;;;;;;0.56;100.00;98587.34;5002360;28;20021;-65
2023/03/15 01:46:16;;;;;;;9.48;5.00;;;;;;;0.43;100.00;98589.50;5014271;28;20385;-65
2023/03/15 01:48:48;;;;;;;13.48;4.40;;;;;;;0.37;100.00;98596.25;5010650;28;20040;-66
2023/03/15 01:51:23;;;;;;;14.05;4.63;;;;;;;0.32;100.00;98606.47;5019960;28;20024;-65
2023/03/15 01:57:22;;;;;;;11.50;5.00;;;;;;;0.44;100.00;98618.63;5034026;28;20056;-65
2023/03/15 01:59:58;;;;;;;16.60;4.75;;;;;;;0.44;100.00;98625.75;5010960;28;20040;-65
2023/03/15 02:02:25;;;;;;;17.92;5.40;;;;;;;0.40;100.00;98621.72;5017203;28;20025;-66
2023/03/15 02:04:58;;;;;;;17.70;5.75;;;;;;;0.36;100.00;98620.31;5012494;28;20040;-66
2023/03/15 02:07:26;;;;;;;11.32;5.13;;;;;;;0.30;100.00;98624.41;5013043;28;20026;-66
2023/03/15 02:10:10;;;;;;;12.80;5.25;;;;;;;0.24;100.00;98635.63;5102382;23;20049;-66
2023/03/15 02:12:41;;;;;;;18.77;5.97;;;;;;;0.27;100.00;98629.19;5097818;23;20053;-69
2023/03/15 02:15:08;;;;;;;13.82;6.03;;;;;;;0.25;100.00;98629.31;5007486;28;20060;-65
2023/03/15 02:17:42;;;;;;;15.43;5.93;;;;;;;0.12;100.00;98637.56;5001265;28;20144;-69
2023/03/15 02:20:39;;;;;;;16.85;5.60;;;;;;;0.12;100.00;98640.25;5010929;28;20161;-69
2023/03/15 02:23:10;;;;;;;22.83;6.07;;;;;;;0.11;100.00;98632.41;4978845;28;20034;-69
2023/03/15 02:26:14;;;;;;;15.00;6.03;;;;;;;0.02;100.00;98634.09;5041658;23;20045;-67
2023/03/15 02:28:41;;;;;;;13.77;6.18;;;;;;;-0.09;100.00;98635.06;5000488;28;20035;-69
2023/03/15 02:31:07;;;;;;;16.63;5.82;;;;;;;-0.14;100.00;98637.31;4932173;28;20035;-69
2023/03/15 02:33:41;;;;;;;14.85;5.90;;;;;;;-0.18;100.00;98640.38;4962050;28;20539;-69
2023/03/15 02:36:19;;;;;;;17.63;5.97;;;;;;;-0.22;100.00;98640.66;4966512;28;20039;-69
2023/03/15 02:38:45;;;;;;;15.52;5.78;;;;;;;-0.24;100.00;98641.78;4933132;28;20506;-69
2023/03/15 02:41:12;;;;;;;17.48;5.25;;;;;;;-0.30;100.00;98637.84;4925181;28;20106;-69
2023/03/15 02:43:39;;;;;;;13.70;5.78;;;;;;;-0.34;100.00;98657.72;4946904;28;20534;-65
2023/03/15 02:46:05;;;;;;;13.43;5.43;;;;;;;-0.43;100.00;98658.53;4932900;28;20050;-69
2023/03/15 02:48:33;;;;;;;14.95;5.30;;;;;;;-0.46;100.00;98672.09;4932173;29;20471;-69
2023/03/15 02:51:00;;;;;;;15.17;5.07;;;;;;;-0.42;100.00;98680.63;4938317;28;20035;-69
2023/03/15 02:53:28;;;;;;;15.63;5.40;;;;;;;-0.52;100.00;98683.28;4942093;29;20316;-69
2023/03/15 02:55:54;;;;;;;17.10;4.82;;;;;;;-0.52;100.00;98693.94;4942739;28;20050;-66
2023/03/15 02:58:20;;;;;;;12.30;5.15;;;;;;;-0.57;100.00;98694.31;4949687;28;20711;-66
2023/03/15 03:00:46;;;;;;;18.23;5.28;;;;;;;-0.67;100.00;98707.56;4928853;28;20188;-65
2023/03/15 03:03:11;;;;;;;15.73;5.10;;;;;;;-0.69;100.00;98714.00;4933821;29;20490;-65
2023/03/15 03:05:36;;;;;;;15.13;5.15;;;;;;;-0.76;100.00;98716.34;4941936;28;20058;-66
2023/03/15 03:08:02;;;;;;;10.63;4.18;;;;;;;-0.75;100.00;98723.34;4956023;28;20035;-66
2023/03/15 03:10:28;;;;;;;19.38;5.07;;;;;;;-0.70;100.00;98728.25;4952940;28;20497;-66
2023/03/15 03:12:57;;;;;;;10.35;4.47;;;;;;;-0.73;100.00;98731.19;5015723;28;20546;-66
2023/03/15 03:15:22;;;;;;;10.45;4.10;;;;;;;-0.70;100.00;98730.91;4929649;29;20031;-68
2023/03/15 03:17:47;;;;;;;9.93;3.97;;;;;;;-0.76;100.00;98747.38;4935221;28;20086;-68
2023/03/15 03:20:13;;;;;;;10.25;3.92;;;;;;;-0.80;100.00;98752.13;4933677;28;20453;-68
2023/03/15 03:22:41;;;;;;;13.98;4.28;;;;;;;-0.81;100.00;98754.88;4917145;29;20041;-68
2023/03/15 03:25:09;;;;;;;9.82;3.92;;;;;;;-0.89;100.00;98753.75;4938275;28;20493;-67
2023/03/15 03:27:37;;;;;;;16.95;4.22;;;;;;;-0.92;100.00;98758.47;4935294;29;20023;-67
2023/03/15 03:30:07;;;;;;;10.00;3.90;;;;;;;-0.95;100.00;98750.78;4932479;29;20454;-67
2023/03/15 03:32:54;;;;;;;10.70;4.05;;;;;;;-0.92;100.00;98758.47;4929747;28;20089;-68
2023/03/15 03:35:20;;;;;;;11.95;3.58;;;;;;;-0.90;100.00;98767.16;4943417;29;20037;-68
2023/03/15 03:37:52;;;;;;;6.47;2.97;;;;;;;-0.87;100.00;98756.25;4931667;29;20087;-68
2023/03/15 03:40:18;;;;;;;10.10;3.67;;;;;;;-0.78;100.00;98775.91;4931601;29;20367;-67
2023/03/15 03:42:43;;;;;;;12.55;3.97;;;;;;;-0.83;100.00;98778.94;4932130;28;20112;-67
2023/03/15 03:45:09;;;;;;;9.30;3.03;;;;;;;-0.82;100.00;98785.94;4941539;28;20037;-68
2023/03/15 03:47:34;;;;;;;10.45;3.50;;;;;;;-0.85;100.00;98785.38;4924599;28;20398;-68
2023/03/15 03:50:00;;;;;;;11.18;3.50;;;;;;;-0.90;100.00;98789.25;4931791;28;20125;-68
2023/03/15 03:52:25;;;;;;;11.80;4.00;;;;;;;-0.85;100.00;98799.47;4933895;28;20115;-67
2023/03/15 03:57:26;;;;;;;9.98;3.35;;;;;;;-0.74;100.00;98796.72;4318119;26;20049;-67
2023/03/15 03:59:51;;;;;;;10.45;3.28;;;;;;;-0.74;100.00;98801.22;5033076;28;20052;-67
2023/03/15 04:02:17;;;;;;;9.50;3.25;;;;;;;-0.76;100.00;98811.13;5020891;28;20023;-67
2023/03/15 04:04:42;;;;;;;4.60;2.30;;;;;;;-0.76;100.00;98812.00;5043220;28;20028;-67
2023/03/15 04:07:07;;;;;;;7.90;2.83;;;;;;;-0.69;100.00;98812.28;5026338;28;20025;-67
2023/03/15 04:09:36;;;;;;;9.15;2.55;;;;;;;-0.77;100.00;98814.75;5028476;28;20484;-67
2023/03/15 04:12:02;;;;;;;6.67;1.87;;;;;;;-0.81;100.00;98818.63;5035655;28;20100;-67
2023/03/15 04:14:28;;;;;;;9.05;2.58;;;;;;;-0.85;100.00;98825.19;5032550;28;20036;-67
2023/03/15 04:16:53;;;;;;;7.97;2.67;;;;;;;-0.80;100.00;98829.16;5036284;28;20444;-67
2023/03/15 04:19:19;;;;;;;9.02;2.97;;;;;;;-0.85;100.00;98835.81;5029299;28;20097;-66
2023/03/15 04:21:47;;;;;;;9.40;2.90;;;;;;;-0.90;100.00;98830.91;5032355;28;20024;-66
2023/03/15 04:24:13;;;;;;;5.65;2.22;;;;;;;-0.82;100.00;98827.59;5042396;28;20044;-66
2023/03/15 04:26:40;;;;;;;5.53;2.40;;;;;;;-0.89;100.00;98838.75;5040931;28;20029;-66
2023/03/15 04:29:08;;;;;;;5.40;2.33;;;;;;;-0.88;100.00;98837.75;5040642;28;20119;-67
2023/03/15 04:31:36;;;;;;;9.27;3.05;;;;;;;-0.90;100.00;98841.53;5027429;28;20032;-67
2023/03/15 04:34:03;;;;;;;6.05;1.80;;;;;;;-0.92;100.00;98843.47;5033207;28;20149;-67
2023/03/15 04:36:28;;;;;;;6.25;2.70;;;;;;;-0.97;100.00;98846.53;5029951;28;20116;-67
2023/03/15 04:39:04;;;;;;;6.28;2.28;;;;;;;-1.09;100.00;98842.22;5031392;28;20128;-67
2023/03/15 04:41:30;;;;;;;5.40;2.55;;;;;;;-0.98;100.00;98846.63;5031715;28;20540;-67
2023/03/15 04:43:56;;;;;;;6.97;2.67;;;;;;;-1.10;100.00;98851.19;5032471;28;20107;-67
2023/03/15 04:46:21;;;;;;;10.80;3.10;;;;;;;-1.14;100.00;98857.69;5036914;28;20048;-67
2023/03/15 04:48:47;;;;;;;6.75;2.85;;;;;;;-1.19;100.00;98860.72;5035504;28;20021;-67
2023/03/15 04:51:12;;;;;;;8.65;2.92;;;;;;;-1.20;100.00;98856.41;5033718;28;20028;-67
2023/03/15 04:53:38;;;;;;;8.63;3.03;;;;;;;-1.20;100.00;98859.06;5012337;28;20087;-67
2023/03/15 04:56:04;;;;;;;7.28;3.03;;;;;;;-1.17;100.00;98858.81;5022676;28;20511;-67
2023/03/15 04:58:30;;;;;;;8.25;2.83;;;;;;;-1.13;100.00;98860.25;5035402;28;20518;-67
2023/03/15 05:00:55;;;;;;;12.73;3.83;;;;;;;-1.09;100.00;98859.97;5031265;28;20033;-68
2023/03/15 05:03:21;;;;;;;11.93;4.47;;;;;;;-1.05;100.00;98856.09;5036666;28;20029;-68
2023/03/15 05:05:46;;;;;;;10.98;4.00;;;;;;;-1.06;100.00;98857.91;5034706;28;20025;-68
2023/03/15 05:08:12;;;;;;;10.73;3.83;;;;;;;-1.09;100.00;98859.97;5032464;28;20150;-68
2023/03/15 05:10:37;;;;;;;10.02;3.67;;;;;;;-1.19;100.00;98846.63;5027182;28;20056;-68
2023/03/15 05:13:03;;;;;;;11.05;4.38;;;;;;;-1.17;100.00;98848.19;5034534;28;20077;-68
2023/03/15 05:15:28;;;;;;;9.90;3.88;;;;;;;-1.19;100.00;98851.94;5033004;28;20090;-68
2023/03/15 05:17:54;;;;;;;9.45;3.75;;;;;;;-1.14;100.00;98849.75;5018073;28;20029;-68
2023/03/15 05:20:20;;;;;;;7.78;3.80;;;;;;;-1.16;100.00;98854.31;5029169;28;20035;-68
2023/03/15 05:22:46;;;;;;;13.38;4.65;;;;;;;-1.23;100.00;98848.69;5033048;28;20024;-68
2023/03/15 05:25:12;;;;;;;13.65;4.72;;;;;;;-1.18;100.00;98854.47;5053795;28;20037;-68
2023/03/15 05:27:38;;;;;;;10.13;4.20;;;;;;;-1.18;100.00;98856.25;5042867;28;20396;-68
2023/03/15 05:30:06;;;;;;;11.13;4.60;;;;;;;-1.20;100.00;98855.56;5033136;28;20025;-69
2023/03/15 05:32:33;;;;;;;13.48;5.13;;;;;;;-1.16;100.00;98860.47;5027533;28;20043;-69
2023/03/15 05:35:00;;;;;;;16.88;5.05;;;;;;;-1.19;100.00;98863.38;5034329;28;20083;-69
2023/03/15 05:37:26;;;;;;;14.70;5.22;;;;;;;-1.22;100.00;98866.31;5036164;28;20021;-68
2023/03/15 05:39:52;;;;;;;17.48;7.53;;;;;;;-1.23;100.00;98869.94;5033058;28;20025;-69
2023/03/15 05:42:24;;;;;;;12.10;5.32;;;;;;;-1.22;100.00;98874.25;5028669;28;20021;-69
2023/03/15 05:44:50;;;;;;;9.73;5.03;;;;;;;-1.21;100.00;98873.28;5035457;28;20124;-68
2023/03/15 05:47:15;;;;;;;22.83;5.57;;;;;;;-1.17;100.00;98877.38;5031793;28;20139;-64
2023/03/15 05:49:41;;;;;;;14.45;4.90;;;;;;;-1.12;100.00;98882.31;5033181;28;20024;-64
2023/03/15 05:52:06;;;;;;;12.27;4.50;;;;;;;-1.01;100.00;98884.06;5044802;28;20440;-65
2023/03/15 05:54:31;;;;;;;13.00;5.03;;;;;;;-0.92;100.00;98883.28;5046628;28;20475;-65
2023/03/15 05:56:57;;;;;;;13.45;5.28;;;;;;;-0.85;100.00;98886.28;5027410;28;20033;-65
2023/03/15 05:59:22;;;;;;;14.38;4.38;;;;;;;-0.80;100.00;98886.75;5032633;28;20131;-64
2023/03/15 06:01:48;;;;;;;12.75;4.82;;;;;;;-0.77;100.00;98883.81;5026061;28;20378;-65
2023/03/15 06:04:14;;;;;;;12.65;5.07;;;;;;;-0.64;100.00;98896.91;5038794;28;20391;-64
2023/03/15 06:06:40;;;;;;;6.82;3.88;;;;;;;-0.57;100.00;98885.63;5042799;28;20080;-64
2023/03/15 06:09:05;;;;;;;12.52;3.92;;;;;;;-0.56;100.00;98886.47;5041967;28;20451;-64
2023/03/15 06:11:39;;;;;;;9.70;4.13;;;;;;;-0.47;100.00;98883.03;5034917;28;20106;-65
2023/03/15 06:14:05;;;;;;;9.38;4.22;;;;;;;-0.32;100.00;98896.81;5033447;28;20040;-64
2023/03/15 06:16:30;;;;;;;12.55;4.20;;;;;;;-0.09;100.00;98897.50;5032333;28;20028;-68
2023/03/15 06:18:56;;;;;;;9.55;4.47;;;;;;;0.90;100.00;98892.28;5034213;28;20456;-68
2023/03/15 06:21:21;;;;;;;7.25;3.75;;;;;;;3.01;100.00;98880.06;5054304;28;20021;-67
2023/03/15 06:23:47;;;;;;;10.93;3.08;;;;;;;4.55;100.00;98834.75;5045975;28;20079;-65
2023/03/15 06:26:14;;;;;;;8.13;2.60;;;;;;;5.35;100.00;98826.94;5027128;28;20054;-64
2023/03/15 06:28:40;;;;;;;5.53;2.80;;;;;;;6.72;100.00;98825.78;5023795;28;20025;-64
2023/03/15 06:31:12;;;;;;;5.53;2.38;;;;;;;7.52;100.00;98826.28;5034429;28;20119;-68
2023/03/15 06:33:39;;;;;;;5.05;2.30;;;;;;;8.07;100.00;98823.19;5027642;28;20017;-67
2023/03/15 06:36:05;;;;;;;4.93;2.22;;;;;;;8.96;100.00;98827.56;5030567;28;20036;-67
2023/03/15 06:38:30;;;;;;;7.93;2.40;;;;;;;9.82;100.00;98832.84;5043425;28;20024;-68
2023/03/15 06:40:59;;;;;;;5.32;2.25;;;;;;;10.50;100.00;98828.44;5035504;28;20029;-68
2023/03/15 06:43:25;;;;;;;3.45;1.75;;;;;;;11.26;84.90;98818.41;5030083;28;20032;-67
2023/03/15 06:45:52;;;;;;;5.53;2.33;;;;;;;11.52;71.74;98821.13;5022823;28;20063;-67
2023/03/15 06:48:18;;;;;;;5.50;2.50;;;;;;;12.03;71.24;98828.59;5032914;28;20047;-67
2023/03/15 06:50:43;;;;;;;7.72;2.47;;;;;;;12.50;66.21;98834.72;5030931;28;20086;-66
2023/03/15 06:53:09;;;;;;;5.40;2.22;;;;;;;13.52;61.98;98828.50;5051625;28;20055;-66
2023/03/15 06:55:34;;;;;;;10.18;2.55;;;;;;;14.76;54.47;98828.44;5032927;28;20033;-67
2023/03/15 06:58:00;;;;;;;6.38;2.47;;;;;;;15.74;52.83;98844.38;5040151;28;20029;-67
2023/03/15 07:00:25;;;;;;;5.78;2.35;;;;;;;16.18;50.17;98844.03;5029701;28;20024;-65
2023/03/15 07:02:51;;;;;;;5.63;2.70;;;;;;;15.70;51.03;98839.66;5022658;28;20026;-65
2023/03/15 07:05:30;;;;;;;8.20;3.03;;;;;;;15.49;52.17;98830.94;5025368;28;20025;-64
2023/03/15 07:07:56;;;;;;;7.15;2.92;;;;;;;16.60;49.33;98828.28;5052021;28;20028;-65
2023/03/15 07:10:21;;;;;;;9.38;3.97;;;;;;;14.99;47.85;98836.72;5035078;28;20112;-65
2023/03/15 07:12:47;;;;;;;10.07;3.72;;;;;;;16.40;47.19;98833.31;5026248;28;20105;-65
2023/03/15 07:15:12;;;;;;;7.03;3.08;;;;;;;16.85;45.86;98830.72;5030695;28;21312;-65
2023/03/15 07:17:38;;;;;;;8.85;2.83;;;;;;;16.50;45.75;98825.31;5026307;28;20108;-66
2023/03/15 07:20:04;;;;;;;5.53;1.85;;;;;;;17.15;43.89;98832.38;5023934;28;20036;-66
2023/03/15 07:22:31;;;;;;;6.38;1.75;;;;;;;15.11;46.45;98840.28;5022728;28;20410;-66
2023/03/15 07:24:56;;;;;;;6.40;1.80;;;;;;;16.34;45.57;98837.00;5022630;28;20040;-65
2023/03/15 07:27:22;;;;;;;9.45;2.25;;;;;;;15.98;45.39;98839.78;5037478;28;20108;-65
2023/03/15 07:29:47;;;;;;;9.68;2.40;;;;;;;17.25;43.20;98829.00;5019225;28;20110;-65
2023/03/15 07:32:13;;;;;;;5.88;2.10;;;;;;;14.60;46.34;98855.25;5046299;28;20116;-65
2023/03/15 07:34:39;;;;;;;8.82;2.17;;;;;;;15.05;46.61;98846.69;5028011;28;20383;-65
2023/03/15 07:37:04;;;;;;;5.82;2.72;;;;;;;14.85;47.03;98852.41;5025038;28;20043;-64
2023/03/15 07:39:31;;;;;;;8.63;2.25;;;;;;;15.21;46.37;98847.09;5027955;28;20476;-65
2023/03/15 07:41:58;;;;;;;13.10;2.50;;;;;;;15.27;45.63;98848.88;5031329;28;20029;-65
2023/03/15 07:44:24;;;;;;;5.70;2.42;;;;;;;15.33;46.73;98851.53;5026697;28;20044;-66
2023/03/15 07:46:49;;;;;;;9.68;2.33;;;;;;;16.15;44.72;98866.34;5021487;28;20033;-67
2023/03/15 07:49:15;;;;;;;6.57;2.13;;;;;;;15.32;45.97;98863.47;5034163;28;20017;-65
2023/03/15 07:51:41;;;;;;;7.70;2.15;;;;;;;15.74;46.26;98854.47;5050597;28;20025;-65
2023/03/15 07:54:07;;;;;;;9.15;2.92;;;;;;;17.59;42.61;98854.47;5040511;28;20369;-65
2023/03/15 07:56:33;;;;;;;8.40;2.30;;;;;;;18.20;42.40;98846.41;5031376;28;20032;-65
2023/03/15 07:58:58;;;;;;;6.70;2.13;;;;;;;18.89;40.84;98845.13;5029838;28;20035;-65
2023/03/15 08:01:24;;;;;;;10.07;2.10;;;;;;;16.87;43.15;98846.84;5032538;28;20120;-65
2023/03/15 08:03:50;;;;;;;11.43;2.10;;;;;;;17.80;42.48;98850.19;5037561;28;20040;-67
2023/03/15 08:06:15;;;;;;;9.75;2.55;;;;;;;18.81;40.35;98852.75;5024784;28;20025;-67
2023/03/15 08:08:40;;;;;;;6.60;2.72;;;;;;;18.67;40.80;98853.34;5035216;28;20017;-67
2023/03/15 08:11:06;;;;;;;9.10;2.40;;;;;;;18.93;41.32;98851.78;5054758;28;20036;-67
2023/03/15 08:13:32;;;;;;;8.40;2.50;;;;;;;20.47;38.05;98843.75;5032868;28;20017;-67
2023/03/15 08:15:58;;;;;;;12.80;2.00;;;;;;;20.09;38.02;98842.13;5035922;28;20124;-65
2023/03/15 08:18:23;;;;;;;7.28;2.13;;;;;;;20.51;36.65;98846.78;5038263;28;20112;-64
2023/03/15 08:20:49;;;;;;;7.20;1.58;;;;;;;20.40;37.41;98854.16;5038304;28;20430;-65
2023/03/15 08:23:15;;;;;;;7.55;1.58;;;;;;;21.56;34.72;98846.63;5030356;28;20457;-65
2023/03/15 08:25:41;;;;;;;8.05;1.98;;;;;;;20.85;36.96;98854.66;5033322;28;20067;-66
2023/03/15 08:28:07;;;;;;;5.55;1.38;;;;;;;21.62;33.89;98855.69;5036105;28;20535;-65
2023/03/15 08:30:32;;;;;;;8.23;1.38;;;;;;;19.30;35.53;98865.59;5033057;28;20392;-65
2023/03/15 08:32:58;;;;;;;7.30;1.17;;;;;;;18.95;34.88;98864.16;5035459;28;20028;-65
2023/03/15 08:35:23;;;;;;;8.63;1.52;;;;;;;18.65;36.99;98861.00;5035152;28;20029;-65
2023/03/15 08:37:51;;;;;;;7.55;1.30;;;;;;;18.77;35.56;98867.22;5038317;28;20017;-65
2023/03/15 08:40:24;;;;;;;5.65;1.08;;;;;;;20.69;33.69;98857.34;5033685;28;20035;-65
2023/03/15 08:42:52;;;;;;;5.60;1.08;;;;;;;20.79;34.13;98867.56;5028592;28;20021;-66
2023/03/15 08:45:18;;;;;;;5.07;0.90;;;;;;;21.73;33.51;98853.78;5035067;28;20040;-65
2023/03/15 08:47:43;;;;;;;9.55;1.13;;;;;;;22.10;32.19;98870.00;5033785;28;20033;-64
2023/03/15 08:50:17;;;;;;;4.00;1.20;;;;;;;19.54;34.78;98879.00;5028884;28;20483;-65
2023/03/15 08:52:43;;;;;;;3.30;1.00;;;;;;;19.97;33.88;98869.81;5038584;28;20017;-64
2023/03/15 08:55:15;;;;;;;3.13;1.00;;;;;;;20.98;34.66;98870.66;5039388;28;20082;-65
2023/03/15 08:57:41;;;;;;;5.35;1.20;;;;;;;19.03;35.52;98873.81;5031180;28;20036;-65
2023/03/15 09:00:19;;;;;;;6.15;1.10;;;;;;;18.69;34.84;98884.06;5020881;28;20461;-65
2023/03/15 09:02:47;;;;;;;7.77;1.27;;;;;;;15.94;37.60;98884.97;5040041;28;20025;-66
2023/03/15 09:05:14;;;;;;;8.20;1.25;;;;;;;15.04;41.64;98894.06;5022593;28;20067;-67
2023/03/15 09:07:41;;;;;;;6.63;1.17;;;;;;;12.86;44.83;98898.47;5050831;28;20087;-65
2023/03/15 09:10:09;;;;;;;8.18;1.05;;;;;;;11.77;46.60;98902.63;5043851;28;20025;-65
2023/03/15 09:12:34;;;;;;;4.88;1.17;;;;;;;11.25;48.58;98916.97;5028626;28;20453;-66
2023/03/15 09:14:59;;;;;;;5.28;1.05;;;;;;;10.34;48.96;98930.72;5032058;28;20029;-65
2023/03/15 09:17:25;;;;;;;12.35;1.75;;;;;;;9.62;50.42;98930.78;5035524;28;20392;-64
2023/03/15 09:19:51;;;;;;;3.80;0.75;;;;;;;8.85;52.75;98931.41;5031934;28;20064;-68
2023/03/15 09:22:16;;;;;;;6.13;1.13;;;;;;;8.99;54.76;98935.13;5049987;28;20032;-65
2023/03/15 09:24:42;;;;;;;4.35;1.00;;;;;;;8.70;60.17;98942.25;5019546;28;20029;-67
2023/03/15 09:27:07;;;;;;;7.03;1.17;;;;;;;7.91;58.50;98949.97;5033657;28;20384;-66
2023/03/15 09:29:33;;;;;;;5.38;0.93;;;;;;;7.09;60.75;98944.38;5034209;28;20109;-67
2023/03/15 09:32:00;;;;;;;5.55;0.85;;;;;;;7.75;59.96;98939.34;5050151;28;20067;-64
2023/03/15 09:34:26;;;;;;;10.30;0.90;;;;;;;9.20;57.88;98935.16;5032300;28;20187;-65
2023/03/15 09:36:52;;;;;;;11.35;1.25;;;;;;;9.82;56.09;98933.69;5032560;28;20448;-65
2023/03/15 09:39:22;;;;;;;9.30;1.33;;;;;;;10.89;54.21;98932.47;5028035;28;20075;-65
2023/03/15 09:41:59;;;;;;;6.85;0.90;;;;;;;12.00;50.91;98932.06;5028476;28;20026;-65
2023/03/15 09:44:28;;;;;;;3.92;0.90;;;;;;;12.13;50.18;98925.81;5026508;28;20048;-66
2023/03/15 09:47:18;;;;;;;9.63;1.02;;;;;;;12.02;49.47;98923.72;5046664;28;20037;-65
2023/03/15 09:49:56;;;;;;;5.00;1.00;;;;;;;11.72;51.51;98926.81;5037255;28;20060;-66
2023/03/15 09:52:48;;;;;;;8.80;1.48;;;;;;;12.19;52.27;98921.41;5036085;28;20109;-65
2023/03/15 09:55:21;;;;;;;5.50;1.02;;;;;;;12.15;50.38;98928.28;5039326;28;20086;-65
2023/03/15 09:57:55;;;;;;;5.20;0.90;;;;;;;11.38;52.55;98935.94;5032720;28;20049;-66
2023/03/15 10:00:37;;;;;;;5.57;1.40;;;;;;;10.43;52.97;98935.78;5029450;28;20024;-67
2023/03/15 10:03:08;;;;;;;5.35;1.10;;;;;;;10.40;54.30;98935.34;5031454;28;20094;-65
2023/03/15 10:05:40;;;;;;;7.20;1.58;;;;;;;9.75;54.94;98927.38;5028251;28;20037;-65
2023/03/15 10:08:14;;;;;;;9.75;1.65;;;;;;;9.36;55.37;98933.25;5035250;28;20086;-66
2023/03/15 10:11:06;;;;;;;9.93;1.65;;;;;;;9.32;56.72;98935.47;5049284;28;20036;-65
2023/03/15 10:13:46;;;;;;;7.03;1.15;;;;;;;8.53;59.33;98933.50;5041478;28;20170;-67
2023/03/15 10:16:39;;;;;;;5.32;0.80;;;;;;;8.71;60.75;98935.00;5030037;28;20033;-67
2023/03/15 10:19:14;;;;;;;4.85;1.02;;;;;;;8.34;58.15;98934.88;5026627;28;20052;-66
2023/03/15 10:22:02;;;;;;;4.22;0.75;;;;;;;9.12;57.58;98931.75;5023933;28;20032;-65
2023/03/15 10:25:06;;;;;;;3.42;0.70;;;;;;;9.14;54.93;98935.94;5010250;28;20060;-65
2023/03/15 10:27:40;;;;;;;2.40;0.90;;;;;;;9.87;55.40;98923.09;5019021;28;20032;-65
2023/03/15 10:30:24;;;;;;;2.33;0.50;;;;;;;10.23;52.50;98916.69;5027418;28;20465;-65
2023/03/15 10:33:02;;;;;;;11.30;1.20;;;;;;;8.98;52.22;98926.19;5024062;28;20091;-64
2023/03/15 10:35:27;;;;;;;8.93;0.65;;;;;;;9.24;52.17;98908.59;5036139;28;20028;-65
2023/03/15 10:38:01;;;;;;;7.35;0.77;;;;;;;10.31;52.14;98918.44;5066301;28;20408;-65
2023/03/15 10:40:48;;;;;;;4.95;0.65;;;;;;;11.43;50.68;98909.09;5063981;28;20061;-66
2023/03/15 10:43:30;;;;;;;6.85;0.63;;;;;;;11.35;48.38;98914.69;5071081;28;20402;-65
2023/03/15 10:46:02;;;;;;;3.65;0.75;;;;;;;10.78;47.88;98922.22;5046537;28;20027;-66
2023/03/15 10:48:30;;;;;;;7.55;1.25;;;;;;;10.69;51.13;98924.28;5042826;28;20033;-66
2023/03/15 10:50:56;;;;;;;3.03;0.60;;;;;;;10.18;52.87;98926.44;5045013;28;20033;-66
2023/03/15 10:53:24;;;;;;;4.95;0.75;;;;;;;9.61;53.34;98930.97;5043386;28;20075;-67
2023/03/15 10:56:00;;;;;;;4.57;0.60;;;;;;;9.16;53.02;98933.03;5047370;28;20029;-67
2023/03/15 10:58:27;;;;;;;7.20;0.60;;;;;;;8.75;54.90;98936.28;5041014;28;20025;-67
2023/03/15 11:01:08;;;;;;;2.97;0.52;;;;;;;8.32;55.38;98938.78;5044206;28;20380;-68
2023/03/15 11:03:36;;;;;;;5.60;0.80;;;;;;;7.84;54.60;98936.41;5042608;28;20060;-67
2023/03/15 11:06:16;;;;;;;2.58;0.75;;;;;;;7.71;59.42;98943.44;5047991;28;20029;-68
2023/03/15 11:08:42;;;;;;;5.60;0.98;;;;;;;7.41;59.13;98935.25;5040934;28;20059;-67
2023/03/15 11:11:08;;;;;;;5.25;0.55;;;;;;;7.21;61.88;98943.81;5043496;28;20052;-67
2023/03/15 11:13:36;;;;;;;4.13;0.65;;;;;;;7.10;69.51;98952.28;5043056;28;20037;-67
2023/03/15 11:16:14;;;;;;;3.92;0.50;;;;;;;7.05;82.01;98959.19;5043525;28;20095;-68
2023/03/15 11:18:52;;;;;;;5.82;0.40;;;;;;;6.95;90.52;98952.19;5059368;28;20029;-68
2023/03/15 11:21:19;;;;;;;1.95;0.45;;;;;;;6.75;100.00;98962.53;5046700;28;20076;-68
2023/03/15 11:23:47;;;;;;;3.10;1.05;;;;;;;6.45;100.00;98957.97;5039936;28;20079;-68
2023/03/15 11:26:25;;;;;;;5.82;0.60;;;;;;;6.34;100.00;98967.22;5045733;28;20091;-68
2023/03/15 11:28:55;;;;;;;4.40;0.60;;;;;;;6.32;100.00;98964.72;5045461;28;20451;-68
2023/03/15 11:31:25;;;;;;;2.45;0.50;;;;;;;6.28;100.00;98952.63;5042580;28;20029;-68
2023/03/15 11:33:55;;;;;;;5.05;0.60;;;;;;;6.17;100.00;98958.38;5065965;28;20025;-68
2023/03/15 11:36:23;;;;;;;2.13;0.55;;;;;;;6.13;100.00;98962.41;5044764;28;20021;-68
2023/03/15 11:38:49;;;;;;;3.78;1.13;;;;;;;6.25;100.00;98958.34;5046311;28;20025;-68
2023/03/15 11:41:30;;;;;;;3.83;0.70;;;;;;;6.40;100.00;98957.66;5060492;28;20040;-68